Time;durP1;ratioP1;P1;durP2;ratioP2;P2;SDS_P1;SDS_P2;PMS_P1;PMS_P2;Temp;Humidity;BMP_temperature;BMP_pressure;BME280_temperature;BME280_humidity;BME280_pressure;Samples;Min_cycle;Max_cycle;Signal;HPM_P1;HPM_P2
2021/10/20 00:13:31;;;;;;;88.90;23.73;;;;;;;;;;5085824;28;20492;-96
2021/10/20 00:15:59;;;;;;;99.20;24.33;;;;;;;;;;5085494;28;20445;-96
2021/10/20 00:18:25;;;;;;;89.70;24.53;;;;;;;;;;5084883;28;20461;-94
2021/10/20 00:20:53;;;;;;;92.80;24.43;;;;;;;;;;5096908;28;20440;-96
2021/10/20 00:23:21;;;;;;;91.00;22.30;;;;;;;;;;5092498;28;20475;-96
2021/10/20 00:25:48;;;;;;;88.60;23.80;;;;;;;;;;5081855;28;20440;-96
2021/10/20 00:28:16;;;;;;;88.50;23.03;;;;;;;;;;5081780;28;20460;-96
2021/10/20 00:30:44;;;;;;;89.60;22.80;;;;;;;;;;5071445;28;20441;-96
2021/10/20 00:33:11;;;;;;;86.37;22.63;;;;;;;;;;5059160;28;20454;-96
2021/10/20 00:35:37;;;;;;;86.77;22.00;;;;;;;;;;5080408;28;20479;-96
2021/10/20 00:38:04;;;;;;;85.20;21.70;;;;;;;;;;5084363;28;20448;-96
2021/10/20 00:40:31;;;;;;;90.50;22.73;;;;;;;;;;5079871;28;20489;-96
2021/10/20 00:42:57;;;;;;;89.00;22.83;;;;;;;;;;5065777;28;20461;-96
2021/10/20 00:45:24;;;;;;;83.37;20.53;;;;;;;;;;5071737;28;20453;-96
2021/10/20 00:47:52;;;;;;;83.67;20.90;;;;;;;;;;5086030;28;20527;-95
2021/10/20 00:50:19;;;;;;;79.87;19.33;;;;;;;;;;5083803;28;20480;-94
2021/10/20 00:52:45;;;;;;;89.67;23.97;;;;;;;;;;5086026;28;20445;-95
2021/10/20 00:55:13;;;;;;;86.60;22.60;;;;;;;;;;5083938;28;21052;-94
2021/10/20 00:57:41;;;;;;;85.97;22.00;;;;;;;;;;5085669;28;20449;-95
2021/10/20 01:00:08;;;;;;;91.60;24.30;;;;;;;;;;5082156;28;21414;-95
2021/10/20 01:02:35;;;;;;;91.63;24.67;;;;;;;;;;5084015;28;20456;-94
2021/10/20 01:05:03;;;;;;;89.70;23.43;;;;;;;;;;5084553;28;21018;-94
2021/10/20 01:07:30;;;;;;;88.60;23.20;;;;;;;;;;5083579;28;20460;-93
2021/10/20 01:09:56;;;;;;;93.17;23.90;;;;;;;;;;5067706;28;20476;-94
2021/10/20 01:12:23;;;;;;;88.27;22.17;;;;;;;;;;5083376;28;20496;-95
2021/10/20 01:14:50;;;;;;;83.20;21.23;;;;;;;;;;5082548;28;20460;-94
2021/10/20 01:17:16;;;;;;;88.00;22.43;;;;;;;;;;5076713;28;20450;-94
2021/10/20 01:19:43;;;;;;;88.67;22.90;;;;;;;;;;5073302;28;20519;-94
2021/10/20 01:22:12;;;;;;;88.40;21.60;;;;;;;;;;5084407;28;20453;-94
2021/10/20 01:24:38;;;;;;;88.32;22.00;;;;;;;;;;5082586;28;20507;-93
2021/10/20 01:27:05;;;;;;;86.03;21.70;;;;;;;;;;5084155;28;20257;-93
2021/10/20 01:29:31;;;;;;;91.07;22.67;;;;;;;;;;5085168;28;20457;-93
2021/10/20 01:31:59;;;;;;;86.90;22.80;;;;;;;;;;5066781;28;20446;-92
2021/10/20 01:34:25;;;;;;;87.77;22.77;;;;;;;;;;5072612;28;20490;-93
2021/10/20 01:36:52;;;;;;;87.60;21.83;;;;;;;;;;5070160;28;20992;-94
2021/10/20 01:39:21;;;;;;;97.93;23.70;;;;;;;;;;5063877;28;20505;-93
2021/10/20 01:41:48;;;;;;;91.83;21.90;;;;;;;;;;5079832;28;20482;-92
2021/10/20 01:44:14;;;;;;;86.00;22.63;;;;;;;;;;5084513;28;20480;-93
2021/10/20 01:46:41;;;;;;;88.40;23.27;;;;;;;;;;5083292;28;20449;-94
2021/10/20 01:49:08;;;;;;;84.80;21.43;;;;;;;;;;5082990;28;20479;-94
2021/10/20 01:51:35;;;;;;;88.40;22.40;;;;;;;;;;5083530;28;20602;-92
2021/10/20 01:54:01;;;;;;;86.17;20.30;;;;;;;;;;5084428;28;20444;-93
2021/10/20 01:56:29;;;;;;;83.40;20.47;;;;;;;;;;5082208;28;20491;-92
2021/10/20 01:58:56;;;;;;;87.17;21.97;;;;;;;;;;5084751;28;20468;-92
2021/10/20 02:01:22;;;;;;;89.00;22.03;;;;;;;;;;5073131;28;20454;-93
2021/10/20 02:03:49;;;;;;;87.17;22.70;;;;;;;;;;5063092;28;20452;-93
2021/10/20 02:06:16;;;;;;;86.47;22.27;;;;;;;;;;5081616;28;20496;-92
2021/10/20 02:08:43;;;;;;;89.17;20.90;;;;;;;;;;5082256;28;20455;-93
2021/10/20 02:11:10;;;;;;;88.63;23.07;;;;;;;;;;5080926;28;20483;-93
2021/10/20 02:13:38;;;;;;;87.37;21.73;;;;;;;;;;5081598;28;20955;-92
2021/10/20 02:16:04;;;;;;;94.60;23.77;;;;;;;;;;5074940;28;20474;-92
2021/10/20 02:18:31;;;;;;;89.90;22.50;;;;;;;;;;5062789;28;20507;-92
2021/10/20 02:20:58;;;;;;;86.72;22.80;;;;;;;;;;5078128;28;20485;-92
2021/10/20 02:23:25;;;;;;;86.43;20.88;;;;;;;;;;5084372;28;20255;-92
2021/10/20 02:25:51;;;;;;;86.90;21.90;;;;;;;;;;5083541;28;20198;-92
2021/10/20 02:28:18;;;;;;;83.70;20.03;;;;;;;;;;5080439;28;20551;-93
2021/10/20 02:30:45;;;;;;;93.13;23.53;;;;;;;;;;5077295;28;20445;-92
2021/10/20 02:33:12;;;;;;;89.93;22.63;;;;;;;;;;5062524;28;20481;-92
2021/10/20 02:35:38;;;;;;;89.00;21.92;;;;;;;;;;5073557;28;20453;-92
2021/10/20 02:38:05;;;;;;;87.00;22.40;;;;;;;;;;5083956;28;20234;-93
2021/10/20 02:40:32;;;;;;;91.10;23.92;;;;;;;;;;5082971;28;20490;-92
2021/10/20 02:42:58;;;;;;;89.00;22.97;;;;;;;;;;5081205;28;20582;-92
2021/10/20 02:45:25;;;;;;;89.70;22.83;;;;;;;;;;5080985;28;20508;-91
2021/10/20 02:47:52;;;;;;;89.82;24.30;;;;;;;;;;5061610;28;20207;-92
2021/10/20 02:50:20;;;;;;;91.50;24.20;;;;;;;;;;5068921;28;20204;-92
2021/10/20 02:52:47;;;;;;;87.28;22.88;;;;;;;;;;5083637;28;20209;-92
2021/10/20 02:55:14;;;;;;;93.75;23.25;;;;;;;;;;5083090;28;20666;-92
2021/10/20 02:57:40;;;;;;;92.88;23.83;;;;;;;;;;5081912;28;20247;-92
2021/10/20 03:00:07;;;;;;;97.07;24.63;;;;;;;;;;5081901;28;20221;-92
2021/10/20 03:02:33;;;;;;;90.53;23.70;;;;;;;;;;5065016;28;20442;-92
2021/10/20 03:05:01;;;;;;;92.50;25.10;;;;;;;;;;5066154;28;20642;-92
2021/10/20 03:07:28;;;;;;;93.30;25.30;;;;;;;;;;5081485;28;20999;-92
2021/10/20 03:09:54;;;;;;;91.97;25.33;;;;;;;;;;5080630;28;20510;-92
2021/10/20 03:12:21;;;;;;;89.27;23.80;;;;;;;;;;5081702;28;20227;-93
2021/10/20 03:14:47;;;;;;;88.15;22.35;;;;;;;;;;5082889;28;20456;-92
2021/10/20 03:17:15;;;;;;;88.60;22.87;;;;;;;;;;5069255;28;20259;-92
2021/10/20 03:19:41;;;;;;;91.70;24.02;;;;;;;;;;5063483;28;20498;-92
2021/10/20 03:22:09;;;;;;;92.93;23.02;;;;;;;;;;5082483;28;20203;-92
2021/10/20 03:24:36;;;;;;;94.20;22.00;;;;;;;;;;5081737;28;20237;-92
2021/10/20 03:27:02;;;;;;;85.32;20.65;;;;;;;;;;5082335;28;20452;-92
2021/10/20 03:29:29;;;;;;;85.43;20.58;;;;;;;;;;5082956;28;20201;-91
2021/10/20 03:31:55;;;;;;;88.60;22.27;;;;;;;;;;5072335;28;20200;-92
2021/10/20 03:34:22;;;;;;;90.22;23.83;;;;;;;;;;5062231;28;20455;-92
2021/10/20 03:36:48;;;;;;;87.85;22.75;;;;;;;;;;5078305;28;20202;-92
2021/10/20 03:39:16;;;;;;;87.00;21.50;;;;;;;;;;5081103;28;20200;-91
2021/10/20 03:41:43;;;;;;;92.13;24.60;;;;;;;;;;5069614;28;20519;-92
2021/10/20 03:44:09;;;;;;;95.20;24.10;;;;;;;;;;5081782;28;20726;-92
2021/10/20 03:46:36;;;;;;;89.20;22.13;;;;;;;;;;5080956;28;20211;-91
2021/10/20 03:49:02;;;;;;;92.50;22.98;;;;;;;;;;5072113;28;20469;-92
2021/10/20 03:51:29;;;;;;;87.90;22.83;;;;;;;;;;5079287;28;20203;-92
2021/10/20 03:53:55;;;;;;;86.17;22.00;;;;;;;;;;5086798;28;20205;-92
2021/10/20 03:56:23;;;;;;;89.78;23.13;;;;;;;;;;5085897;28;21215;-92
2021/10/20 03:58:49;;;;;;;92.72;21.60;;;;;;;;;;5085433;28;20656;-92
2021/10/20 04:01:16;;;;;;;92.05;21.85;;;;;;;;;;5081795;28;20247;-92
2021/10/20 04:03:42;;;;;;;89.22;22.90;;;;;;;;;;5064835;28;20235;-92
2021/10/20 04:06:09;;;;;;;87.60;21.40;;;;;;;;;;5074280;28;20213;-92
2021/10/20 04:08:35;;;;;;;87.10;21.38;;;;;;;;;;5085632;28;20205;-92
2021/10/20 04:11:02;;;;;;;92.18;22.65;;;;;;;;;;5084939;28;20281;-92
2021/10/20 04:13:30;;;;;;;87.30;22.30;;;;;;;;;;5083518;28;20234;-92
2021/10/20 04:15:56;;;;;;;85.32;20.45;;;;;;;;;;5084537;28;20460;-92
2021/10/20 04:18:23;;;;;;;87.35;21.95;;;;;;;;;;5085726;28;20201;-92
2021/10/20 04:20:50;;;;;;;88.87;22.00;;;;;;;;;;5085633;28;20635;-92
2021/10/20 04:23:16;;;;;;;86.10;20.65;;;;;;;;;;5083352;28;20506;-91
2021/10/20 04:25:42;;;;;;;87.38;21.55;;;;;;;;;;5083400;28;20622;-91
2021/10/20 04:28:09;;;;;;;93.88;23.10;;;;;;;;;;5084829;28;20199;-92
2021/10/20 04:30:37;;;;;;;90.18;23.08;;;;;;;;;;5085257;28;20205;-91
2021/10/20 04:33:03;;;;;;;93.30;24.00;;;;;;;;;;5069034;28;20198;-92
2021/10/20 04:35:30;;;;;;;89.68;23.60;;;;;;;;;;5066715;28;20201;-92
2021/10/20 04:37:57;;;;;;;92.47;22.73;;;;;;;;;;5086064;28;20202;-93
2021/10/20 04:40:23;;;;;;;86.57;21.77;;;;;;;;;;5085701;28;20233;-93
2021/10/20 04:42:50;;;;;;;89.75;22.30;;;;;;;;;;5084652;28;20231;-93
2021/10/20 04:45:17;;;;;;;89.90;23.50;;;;;;;;;;5084516;28;20206;-92
2021/10/20 04:47:45;;;;;;;88.93;22.45;;;;;;;;;;5072646;28;20201;-92
2021/10/20 04:50:11;;;;;;;89.90;23.80;;;;;;;;;;5065213;28;20238;-92
2021/10/20 04:52:38;;;;;;;89.78;22.65;;;;;;;;;;5083777;28;20228;-93
2021/10/20 04:55:05;;;;;;;93.10;24.08;;;;;;;;;;5084445;28;20209;-93
2021/10/20 04:57:32;;;;;;;90.55;21.17;;;;;;;;;;5085278;28;20711;-93
2021/10/20 04:59:58;;;;;;;97.37;24.27;;;;;;;;;;5085472;28;20203;-94
2021/10/20 05:02:25;;;;;;;96.30;26.02;;;;;;;;;;5076226;28;20443;-93
2021/10/20 05:04:52;;;;;;;96.23;26.50;;;;;;;;;;5065519;28;20206;-93
2021/10/20 05:07:19;;;;;;;97.05;26.05;;;;;;;;;;5070693;28;20473;-93
2021/10/20 05:09:49;;;;;;;96.10;26.40;;;;;;;;;;5069981;28;20212;-94
2021/10/20 05:12:16;;;;;;;105.07;28.60;;;;;;;;;;5074279;28;20519;-93
2021/10/20 05:14:42;;;;;;;99.97;28.50;;;;;;;;;;5079858;28;20202;-94
2021/10/20 05:17:09;;;;;;;113.13;29.55;;;;;;;;;;5071268;28;20471;-94
2021/10/20 05:19:35;;;;;;;100.07;27.93;;;;;;;;;;5058692;28;20201;-93
2021/10/20 05:22:03;;;;;;;110.00;32.15;;;;;;;;;;5074918;28;20554;-93
2021/10/20 05:24:30;;;;;;;110.70;31.90;;;;;;;;;;5082989;28;20203;-93
2021/10/20 05:26:56;;;;;;;111.17;31.17;;;;;;;;;;5083662;28;20510;-92
2021/10/20 05:29:23;;;;;;;109.17;32.87;;;;;;;;;;5084909;28;20460;-93
2021/10/20 05:31:49;;;;;;;105.53;30.30;;;;;;;;;;5080562;28;20982;-93
2021/10/20 05:34:16;;;;;;;108.07;30.40;;;;;;;;;;5064121;28;20446;-95
2021/10/20 05:36:42;;;;;;;117.10;32.50;;;;;;;;;;5071007;28;20465;-95
2021/10/20 05:39:10;;;;;;;117.00;31.50;;;;;;;;;;5082787;28;20456;-93
2021/10/20 05:41:37;;;;;;;108.17;31.43;;;;;;;;;;5082168;28;20493;-93
2021/10/20 05:44:03;;;;;;;117.13;32.67;;;;;;;;;;5082901;28;20450;-92
2021/10/20 05:46:30;;;;;;;114.53;32.53;;;;;;;;;;5083047;28;21018;-93
2021/10/20 05:48:56;;;;;;;115.07;33.43;;;;;;;;;;5062145;28;20449;-94
2021/10/20 05:51:23;;;;;;;106.47;31.80;;;;;;;;;;5066867;28;20465;-94
2021/10/20 05:53:49;;;;;;;107.00;32.13;;;;;;;;;;5077740;28;20454;-94
2021/10/20 05:56:17;;;;;;;112.63;32.90;;;;;;;;;;5076948;28;20457;-93
2021/10/20 05:58:44;;;;;;;122.80;34.70;;;;;;;;;;5083835;28;20453;-93
2021/10/20 06:01:12;;;;;;;125.43;33.23;;;;;;;;;;5083165;28;20527;-93
2021/10/20 06:03:38;;;;;;;116.70;33.47;;;;;;;;;;5081593;28;20444;-92
2021/10/20 06:06:05;;;;;;;131.77;35.13;;;;;;;;;;5081099;28;20457;-92
2021/10/20 06:08:31;;;;;;;123.93;33.33;;;;;;;;;;5082317;28;20475;-93
2021/10/20 06:10:58;;;;;;;119.70;31.70;;;;;;;;;;5081626;28;20461;-92
2021/10/20 06:13:26;;;;;;;119.80;34.93;;;;;;;;;;5082130;28;20469;-92
2021/10/20 06:15:52;;;;;;;123.40;34.43;;;;;;;;;;5082859;28;20499;-92
2021/10/20 06:18:19;;;;;;;118.20;33.30;;;;;;;;;;5069324;28;20434;-93
2021/10/20 06:20:45;;;;;;;131.37;32.97;;;;;;;;;;5061154;28;20505;-91
2021/10/20 06:23:12;;;;;;;119.67;35.20;;;;;;;;;;5079072;28;20453;-93
2021/10/20 06:25:38;;;;;;;119.60;33.77;;;;;;;;;;5072291;28;20464;-92
2021/10/20 06:28:05;;;;;;;143.00;35.83;;;;;;;;;;5075130;28;20492;-93
2021/10/20 06:30:33;;;;;;;126.43;37.30;;;;;;;;;;5073800;28;20445;-92
2021/10/20 06:32:59;;;;;;;129.07;34.47;;;;;;;;;;5080995;28;20453;-92
2021/10/20 06:35:26;;;;;;;134.40;36.40;;;;;;;;;;5081364;28;20449;-92
2021/10/20 06:37:53;;;;;;;130.00;37.70;;;;;;;;;;5081853;28;20469;-92
2021/10/20 06:40:20;;;;;;;128.63;38.60;;;;;;;;;;5082090;28;20499;-93
2021/10/20 06:42:46;;;;;;;125.27;35.90;;;;;;;;;;5082226;28;20504;-93
2021/10/20 06:45:13;;;;;;;125.37;35.83;;;;;;;;;;5081479;28;20446;-92
2021/10/20 06:47:41;;;;;;;142.80;38.30;;;;;;;;;;5076371;28;20438;-93
2021/10/20 06:50:07;;;;;;;122.00;35.40;;;;;;;;;;5065204;28;20461;-92
2021/10/20 06:52:34;;;;;;;127.23;37.57;;;;;;;;;;5081669;28;20457;-92
2021/10/20 06:55:00;;;;;;;127.13;36.70;;;;;;;;;;5081088;28;20449;-92
2021/10/20 06:57:27;;;;;;;127.67;37.67;;;;;;;;;;5081545;28;20457;-93
2021/10/20 06:59:53;;;;;;;120.80;35.03;;;;;;;;;;5073078;28;20442;-92
2021/10/20 07:02:20;;;;;;;125.73;38.03;;;;;;;;;;5070607;28;20485;-92
2021/10/20 07:04:48;;;;;;;136.33;39.07;;;;;;;;;;5071475;28;20463;-92
2021/10/20 07:07:15;;;;;;;125.97;39.40;;;;;;;;;;5073487;28;20465;-92
2021/10/20 07:09:41;;;;;;;125.07;36.50;;;;;;;;;;5075473;28;20457;-96
2021/10/20 07:12:08;;;;;;;127.70;37.57;;;;;;;;;;5061370;28;20486;-93
2021/10/20 07:14:35;;;;;;;122.03;39.03;;;;;;;;;;5059095;28;20476;-94
2021/10/20 07:19:38;;;;;;;128.20;40.07;;;;;;;;;;5011417;28;20589;-95
2021/10/20 07:22:06;;;;;;;130.80;41.20;;;;;;;;;;5027863;28;20522;-96
2021/10/20 07:24:39;;;;;;;134.17;39.37;;;;;;;;;;5049669;28;20426;-96
2021/10/20 07:27:10;;;;;;;125.20;39.63;;;;;;;;;;5331240;22;21580;-96
2021/10/20 07:29:37;;;;;;;132.13;43.47;;;;;;;;;;5097813;28;20463;-95
2021/10/20 07:32:04;;;;;;;129.00;40.70;;;;;;;;;;5081800;28;20488;-96
2021/10/20 07:35:03;;;;;;;135.77;45.47;;;;;;;;;;5101240;28;20448;-96
2021/10/20 07:37:32;;;;;;;144.17;46.90;;;;;;;;;;5109025;28;20461;-95
2021/10/20 07:40:06;;;;;;;135.87;44.33;;;;;;;;;;5086200;28;20456;-96
2021/10/20 07:42:48;;;;;;;139.10;46.03;;;;;;;;;;5109922;28;20511;-96
2021/10/20 07:47:51;;;;;;;140.57;46.30;;;;;;;;;;3132270;26;20492;-96
2021/10/20 07:50:18;;;;;;;139.03;44.50;;;;;;;;;;5092193;28;20446;-96
2021/10/20 07:52:49;;;;;;;141.27;46.90;;;;;;;;;;5114662;23;20492;-96
2021/10/20 07:55:16;;;;;;;134.30;41.53;;;;;;;;;;5082868;28;20445;-96
2021/10/20 08:28:25;;;;;;;139.70;47.27;;;;;;;;;;5842137;22;20517;-96
2021/10/20 08:39:44;;;;;;;132.07;43.77;;;;;;;;;;5233355;22;20495;-96
2021/10/20 08:42:11;;;;;;;124.90;41.70;;;;;;;;;;5101462;28;20520;-94
2021/10/20 08:44:39;;;;;;;114.17;38.37;;;;;;;;;;5098590;28;20448;-94
2021/10/20 08:47:08;;;;;;;130.50;40.17;;;;;;;;;;5151054;22;20486;-96
2021/10/20 08:49:53;;;;;;;124.30;39.20;;;;;;;;;;5143168;23;20539;-96
2021/10/20 08:52:20;;;;;;;120.53;39.10;;;;;;;;;;5112744;28;20510;-96
2021/10/20 08:54:53;;;;;;;119.77;38.17;;;;;;;;;;5106646;28;20512;-96
2021/10/20 09:08:21;;;;;;;108.87;35.33;;;;;;;;;;5028468;28;20507;-96
2021/10/20 09:10:48;;;;;;;121.67;39.80;;;;;;;;;;5036950;28;20444;-96
2021/10/20 09:15:41;;;;;;;114.18;36.70;;;;;;;;;;5391104;22;20502;-96
2021/10/20 09:20:35;;;;;;;114.57;37.80;;;;;;;;;;5088976;22;20489;-96
2021/10/20 09:25:44;;;;;;;106.30;37.63;;;;;;;;;;5243422;22;20467;-96
2021/10/20 09:28:14;;;;;;;108.00;33.97;;;;;;;;;;5078609;28;20463;-94
2021/10/20 09:33:25;;;;;;;107.47;34.87;;;;;;;;;;5000145;28;20452;-96
2021/10/20 09:35:51;;;;;;;104.57;33.10;;;;;;;;;;5063594;28;20463;-96
2021/10/20 09:38:34;;;;;;;100.03;30.40;;;;;;;;;;5063484;28;20445;-95
2021/10/20 09:41:18;;;;;;;98.50;32.63;;;;;;;;;;5079479;28;20459;-95
2021/10/20 09:43:52;;;;;;;103.50;31.90;;;;;;;;;;5079057;28;20452;-96
2021/10/20 09:48:54;;;;;;;94.47;29.40;;;;;;;;;;5640295;22;20492;-96
2021/10/20 09:51:21;;;;;;;98.57;30.77;;;;;;;;;;5098501;28;20460;-95
2021/10/20 09:53:51;;;;;;;102.40;33.10;;;;;;;;;;5100763;28;20420;-93
2021/10/20 10:01:38;;;;;;;94.60;29.50;;;;;;;;;;5934033;22;20475;-96
2021/10/20 10:09:55;;;;;;;90.17;28.53;;;;;;;;;;5695587;22;20467;-96
2021/10/20 10:12:25;;;;;;;94.10;29.43;;;;;;;;;;5056281;28;20554;-96
2021/10/20 10:14:55;;;;;;;93.87;29.50;;;;;;;;;;5321916;22;20500;-95
2021/10/20 10:17:23;;;;;;;98.73;29.63;;;;;;;;;;5078347;28;20456;-96
2021/10/20 10:25:40;;;;;;;93.13;29.23;;;;;;;;;;5038223;28;20395;-96
2021/10/20 11:00:45;;;;;;;93.50;28.37;;;;;;;;;;5195225;22;20494;-96
2021/10/20 11:03:15;;;;;;;89.50;28.63;;;;;;;;;;5059260;28;20449;-95
2021/10/20 11:05:48;;;;;;;87.80;28.07;;;;;;;;;;5049420;28;21095;-95
2021/10/20 12:26:29;;;;;;;77.70;23.10;;;;;;;;;;5060187;27;1365776;-96
2021/10/20 12:29:11;;;;;;;78.50;23.23;;;;;;;;;;5121815;23;20242;-96
2021/10/20 12:31:39;;;;;;;80.10;23.70;;;;;;;;;;5069651;28;20455;-96
2021/10/20 12:34:06;;;;;;;78.43;25.00;;;;;;;;;;5246662;22;20480;-96
2021/10/20 12:36:49;;;;;;;75.47;22.30;;;;;;;;;;5075072;28;20491;-96
2021/10/20 12:42:03;;;;;;;76.07;20.77;;;;;;;;;;5087325;28;20461;-96
2021/10/20 12:47:39;;;;;;;77.10;22.40;;;;;;;;;;5062306;23;20501;-96
2021/10/20 12:52:49;;;;;;;75.47;21.90;;;;;;;;;;5184782;23;20592;-96
2021/10/20 13:03:40;;;;;;;76.50;22.10;;;;;;;;;;4350975;23;20612;-96
2021/10/20 13:06:09;;;;;;;79.33;21.80;;;;;;;;;;5002101;28;20546;-94
2021/10/20 13:09:00;;;;;;;77.80;21.10;;;;;;;;;;5001259;28;20513;-93
2021/10/20 13:11:31;;;;;;;76.20;21.60;;;;;;;;;;4999531;28;20453;-96
2021/10/20 13:13:58;;;;;;;77.37;22.87;;;;;;;;;;4999032;28;20893;-94
2021/10/20 13:16:24;;;;;;;76.20;22.10;;;;;;;;;;4997459;28;20542;-95
2021/10/20 13:18:54;;;;;;;75.97;22.20;;;;;;;;;;5002299;28;20456;-96
2021/10/20 13:21:21;;;;;;;75.50;22.10;;;;;;;;;;4999629;28;20448;-94
2021/10/20 13:23:47;;;;;;;75.37;22.17;;;;;;;;;;5002814;28;20452;-95
2021/10/20 13:26:16;;;;;;;75.20;22.27;;;;;;;;;;4991749;28;20457;-95
2021/10/20 13:28:43;;;;;;;77.30;22.40;;;;;;;;;;4985393;23;20573;-94
2021/10/20 13:31:12;;;;;;;76.57;22.40;;;;;;;;;;4983084;28;20457;-93
2021/10/20 13:33:40;;;;;;;75.40;22.40;;;;;;;;;;4989913;28;20445;-95
2021/10/20 13:36:11;;;;;;;77.37;21.27;;;;;;;;;;4990325;28;20517;-93
2021/10/20 13:38:39;;;;;;;77.63;22.60;;;;;;;;;;4990949;28;20430;-96
2021/10/20 13:41:07;;;;;;;74.20;21.00;;;;;;;;;;4989404;28;20528;-96
2021/10/20 13:46:21;;;;;;;74.10;21.70;;;;;;;;;;4987767;28;20457;-96
2021/10/20 13:48:51;;;;;;;75.37;21.90;;;;;;;;;;5003244;23;20599;-96
2021/10/20 13:51:17;;;;;;;75.83;21.30;;;;;;;;;;5011142;28;20453;-96
2021/10/20 13:53:44;;;;;;;74.97;20.87;;;;;;;;;;4991448;28;20450;-95
2021/10/20 13:56:11;;;;;;;78.87;22.17;;;;;;;;;;5008788;28;20467;-96
2021/10/20 13:58:42;;;;;;;75.30;21.57;;;;;;;;;;5010193;28;20461;-96
2021/10/20 14:01:08;;;;;;;75.17;21.53;;;;;;;;;;5010058;28;20449;-95
2021/10/20 14:03:43;;;;;;;78.17;22.90;;;;;;;;;;5004317;28;20783;-95
2021/10/20 14:06:46;;;;;;;75.87;22.60;;;;;;;;;;5007812;28;20499;-96
2021/10/20 14:09:13;;;;;;;75.57;21.77;;;;;;;;;;4975332;28;20479;-96
2021/10/20 14:11:40;;;;;;;75.17;20.70;;;;;;;;;;5008443;28;20648;-94
2021/10/20 14:14:07;;;;;;;79.77;23.80;;;;;;;;;;4988836;28;20534;-96
2021/10/20 14:16:34;;;;;;;80.37;22.50;;;;;;;;;;5007816;28;20452;-96
2021/10/20 14:19:02;;;;;;;76.27;21.47;;;;;;;;;;5008660;28;20454;-95
2021/10/20 14:21:30;;;;;;;75.27;22.30;;;;;;;;;;5008671;28;20446;-94
2021/10/20 14:23:57;;;;;;;78.60;22.47;;;;;;;;;;5008568;28;20446;-96
2021/10/20 14:26:24;;;;;;;79.90;22.57;;;;;;;;;;5005472;28;20455;-96
2021/10/20 14:28:50;;;;;;;74.27;20.60;;;;;;;;;;5017582;28;20447;-95
2021/10/20 14:34:02;;;;;;;76.47;21.67;;;;;;;;;;5024336;28;20507;-95
2021/10/20 14:36:29;;;;;;;78.20;21.10;;;;;;;;;;5025892;28;20442;-93
2021/10/20 14:38:55;;;;;;;76.57;22.00;;;;;;;;;;5028278;28;20456;-96
2021/10/20 14:41:22;;;;;;;78.17;23.67;;;;;;;;;;5024561;28;20470;-93
2021/10/20 14:43:48;;;;;;;76.90;21.83;;;;;;;;;;5009249;28;20453;-93
2021/10/20 14:49:21;;;;;;;77.47;22.00;;;;;;;;;;4976494;28;20501;-94
2021/10/20 14:51:49;;;;;;;76.90;23.30;;;;;;;;;;4995702;28;20459;-93
2021/10/20 14:54:16;;;;;;;78.13;22.90;;;;;;;;;;5001421;28;20527;-93
2021/10/20 14:56:42;;;;;;;80.13;22.63;;;;;;;;;;5002006;28;20455;-95
2021/10/20 14:59:09;;;;;;;80.03;22.80;;;;;;;;;;4998613;28;20510;-91
2021/10/20 15:01:35;;;;;;;76.70;22.30;;;;;;;;;;4985240;28;20503;-95
2021/10/20 15:04:03;;;;;;;79.20;23.00;;;;;;;;;;5001341;28;20461;-96
2021/10/20 15:06:29;;;;;;;79.90;22.73;;;;;;;;;;5004157;28;20452;-95
2021/10/20 15:08:57;;;;;;;80.23;23.07;;;;;;;;;;5004859;28;20459;-96
2021/10/20 15:11:24;;;;;;;80.73;22.30;;;;;;;;;;5011945;28;20445;-96
2021/10/20 15:13:51;;;;;;;76.60;22.30;;;;;;;;;;5006369;28;20457;-96
2021/10/20 15:16:18;;;;;;;77.40;22.20;;;;;;;;;;4985848;28;20493;-95
2021/10/20 15:18:51;;;;;;;78.03;23.30;;;;;;;;;;4989876;28;20469;-96
2021/10/20 15:21:18;;;;;;;79.00;22.97;;;;;;;;;;4987612;28;20456;-96
2021/10/20 15:23:45;;;;;;;79.33;22.70;;;;;;;;;;4985290;28;20956;-96
2021/10/20 15:26:14;;;;;;;79.60;22.70;;;;;;;;;;5011555;28;20457;-95
2021/10/20 15:28:40;;;;;;;78.80;22.97;;;;;;;;;;5011009;28;21164;-96
2021/10/20 15:31:07;;;;;;;76.77;22.07;;;;;;;;;;5013049;28;20469;-96
2021/10/20 15:33:36;;;;;;;81.07;21.27;;;;;;;;;;5001672;28;20463;-96
2021/10/20 15:36:03;;;;;;;78.30;22.53;;;;;;;;;;5019191;28;20539;-95
2021/10/20 15:38:30;;;;;;;77.47;21.13;;;;;;;;;;5017257;28;20451;-96
2021/10/20 15:41:10;;;;;;;78.10;22.97;;;;;;;;;;5029065;28;20467;-96
2021/10/20 15:43:45;;;;;;;79.40;22.77;;;;;;;;;;5017151;23;20449;-95
2021/10/20 15:46:12;;;;;;;78.27;22.47;;;;;;;;;;4989950;28;20497;-95
2021/10/20 15:54:02;;;;;;;80.20;24.17;;;;;;;;;;4982855;28;20465;-95
2021/10/20 15:56:30;;;;;;;78.20;23.73;;;;;;;;;;4983901;28;20497;-96
2021/10/20 15:58:59;;;;;;;80.53;22.30;;;;;;;;;;4970970;28;20449;-96
2021/10/20 16:01:28;;;;;;;80.67;23.17;;;;;;;;;;4973472;28;20466;-95
2021/10/20 16:03:55;;;;;;;81.00;23.70;;;;;;;;;;4984215;28;20514;-94
2021/10/20 16:06:25;;;;;;;80.67;23.37;;;;;;;;;;4988276;28;20516;-96
2021/10/20 16:08:55;;;;;;;78.90;23.23;;;;;;;;;;4988869;28;20478;-96
2021/10/20 16:11:22;;;;;;;82.03;23.00;;;;;;;;;;4986401;28;20453;-95
2021/10/20 16:13:48;;;;;;;80.70;24.23;;;;;;;;;;4986425;28;20458;-95
2021/10/20 16:16:18;;;;;;;83.20;22.93;;;;;;;;;;4986958;28;20505;-96
2021/10/20 16:18:45;;;;;;;86.73;24.87;;;;;;;;;;4990713;28;20472;-96
2021/10/20 16:21:13;;;;;;;80.57;23.50;;;;;;;;;;4985990;28;20448;-96
2021/10/20 16:23:40;;;;;;;80.47;25.50;;;;;;;;;;4973651;28;20450;-96
2021/10/20 16:26:10;;;;;;;80.50;22.90;;;;;;;;;;4982314;28;20450;-93
2021/10/20 16:28:41;;;;;;;81.60;24.03;;;;;;;;;;4984223;28;20461;-96
2021/10/20 16:31:12;;;;;;;81.50;23.47;;;;;;;;;;4986274;28;20458;-95
2021/10/20 16:33:44;;;;;;;84.37;25.03;;;;;;;;;;4985480;28;20451;-96
2021/10/20 16:36:11;;;;;;;85.53;25.27;;;;;;;;;;5093980;23;20494;-95
2021/10/20 16:41:03;;;;;;;85.10;24.73;;;;;;;;;;5027414;23;20592;-95
2021/10/20 16:43:29;;;;;;;83.10;25.40;;;;;;;;;;4981551;28;20230;-94
2021/10/20 16:45:56;;;;;;;88.00;26.10;;;;;;;;;;4981023;28;20497;-94
2021/10/20 16:48:22;;;;;;;82.47;24.50;;;;;;;;;;4984024;28;20528;-94
2021/10/20 16:50:50;;;;;;;83.20;24.03;;;;;;;;;;4990229;28;20486;-94
2021/10/20 16:53:17;;;;;;;87.47;23.70;;;;;;;;;;5000976;28;20450;-94
2021/10/20 16:55:44;;;;;;;83.00;24.13;;;;;;;;;;4995707;28;21031;-96
2021/10/20 16:58:10;;;;;;;84.20;24.63;;;;;;;;;;4991715;28;20465;-95
2021/10/20 17:00:37;;;;;;;82.23;23.60;;;;;;;;;;4986197;28;20533;-95
2021/10/20 17:03:06;;;;;;;91.90;25.70;;;;;;;;;;4987767;28;20449;-95
2021/10/20 17:05:34;;;;;;;81.80;24.97;;;;;;;;;;5005938;28;20480;-96
2021/10/20 17:08:03;;;;;;;86.57;26.87;;;;;;;;;;4953152;28;20474;-95
2021/10/20 17:10:29;;;;;;;83.13;24.83;;;;;;;;;;4965993;28;20490;-95
2021/10/20 17:12:56;;;;;;;88.27;26.50;;;;;;;;;;4972192;28;20460;-95
2021/10/20 17:15:24;;;;;;;87.70;25.93;;;;;;;;;;4991564;28;20493;-96
2021/10/20 17:17:51;;;;;;;87.70;26.10;;;;;;;;;;5000505;28;20458;-95
2021/10/20 17:20:18;;;;;;;85.07;24.40;;;;;;;;;;4986529;28;20463;-95
2021/10/20 17:22:45;;;;;;;89.60;26.90;;;;;;;;;;4970403;28;20446;-94
2021/10/20 17:25:14;;;;;;;86.67;25.83;;;;;;;;;;4969838;28;20465;-96
2021/10/20 17:30:24;;;;;;;86.97;25.77;;;;;;;;;;4995026;28;20489;-95
2021/10/20 17:33:05;;;;;;;84.17;24.23;;;;;;;;;;4996529;28;20483;-96
2021/10/20 17:35:37;;;;;;;84.20;24.20;;;;;;;;;;4980756;28;20481;-95
2021/10/20 17:38:04;;;;;;;85.63;24.50;;;;;;;;;;4993890;28;20436;-96
2021/10/20 17:40:36;;;;;;;81.97;23.00;;;;;;;;;;4978011;28;20501;-96
2021/10/20 17:46:08;;;;;;;83.87;23.93;;;;;;;;;;5020804;23;20498;-96
2021/10/20 17:48:36;;;;;;;83.10;24.60;;;;;;;;;;4979373;28;20487;-96
2021/10/20 17:51:04;;;;;;;86.60;25.43;;;;;;;;;;5055982;23;20483;-95
2021/10/20 17:53:37;;;;;;;87.60;24.90;;;;;;;;;;5011226;28;20455;-96
2021/10/20 17:58:43;;;;;;;97.20;30.40;;;;;;;;;;1206893;26;20497;-96
2021/10/20 18:03:59;;;;;;;85.90;26.60;;;;;;;;;;5011299;23;20487;-96
2021/10/20 18:06:47;;;;;;;90.03;26.13;;;;;;;;;;4986942;28;20444;-96
2021/10/20 18:09:23;;;;;;;88.00;26.20;;;;;;;;;;4994731;28;20517;-96
2021/10/20 18:11:50;;;;;;;87.30;25.20;;;;;;;;;;5025883;28;20489;-95
2021/10/20 18:14:18;;;;;;;97.30;31.13;;;;;;;;;;5006371;28;20458;-95
2021/10/20 18:16:46;;;;;;;107.77;34.20;;;;;;;;;;4995660;28;20507;-95
2021/10/20 18:19:13;;;;;;;99.47;32.47;;;;;;;;;;4994973;28;20490;-95
2021/10/20 18:21:42;;;;;;;103.87;33.07;;;;;;;;;;5007838;28;20449;-95
2021/10/20 18:24:09;;;;;;;103.50;34.30;;;;;;;;;;5006140;28;20486;-95
2021/10/20 18:26:36;;;;;;;92.97;29.20;;;;;;;;;;5005295;28;20461;-95
2021/10/20 18:29:03;;;;;;;92.27;28.83;;;;;;;;;;5008786;28;20467;-94
2021/10/20 18:31:31;;;;;;;88.10;26.90;;;;;;;;;;5011579;28;20467;-95